Latest Weather Observations for Warburton

IDW60801

Issued at 7:13 pm WST Wednesday 14 November 2018 (issued every 10 minutes, with the page automatically refreshed every 10 minutes)

About weather observations | Map of weather stations | Latest weather observations for WA | Other Formats
Station Details ID: 013011 Name: WARBURTON AIRFIELD Lat: -26.13 Lon: 126.58 Height: 459.0 m
Data from the previous 72 hours. | See also: Recent months at Warburton
Date/Time
WST
Temp
°C
App
Temp
°C
Dew
Point
°C
Rel
Hum
%
Delta-T
°C
Wind Press
QNH
hPa
Press
MSL
hPa
Rain since
9am
mm
Dir  Spd
km/h
Gust
km/h
Spd
kts
Gust
kts
14/07:00pm 28.5 24.6 1.1 17 13.5 SSE 11 13 6 7 1016.7 - 0.0
14/06:30pm 29.9 24.9 1.4 16 14.2 SE 17 22 9 12 1016.2 - 0.0
14/06:00pm 30.6 25.5 1.0 15 14.7 SE 17 24 9 13 1015.9 1013.0 0.0
14/05:30pm 31.7 26.1 1.0 14 15.4 SE 20 28 11 15 1015.5 - 0.0
14/05:00pm 32.5 26.4 0.6 13 16.0 ESE 22 30 12 16 1015.2 - 0.0
14/04:30pm 32.9 26.9 0.9 13 16.2 SE 22 33 12 18 1015.0 - 0.0
14/04:00pm 33.5 27.4 0.2 12 16.7 ESE 22 32 12 17 1014.9 - 0.0
14/03:30pm 33.6 27.3 -0.9 11 17.0 SE 22 37 12 20 1014.9 - 0.0
14/03:00pm 33.5 27.7 0.2 12 16.7 SE 20 37 11 20 1015.0 1012.0 0.0
14/02:30pm 33.6 28.1 0.3 12 16.7 E 19 30 10 16 1015.1 - 0.0
14/02:00pm 34.0 27.9 0.6 12 16.9 SE 22 32 12 17 1015.3 - 0.0
14/01:30pm 33.7 28.0 0.4 12 16.8 SE 20 32 11 17 1015.6 - 0.0
14/01:00pm 33.5 27.4 0.2 12 16.7 SE 22 32 12 17 1016.1 - 0.0
14/12:30pm 32.8 27.3 1.8 14 15.9 SSE 20 30 11 16 1016.5 - 0.0
14/12:00pm 31.9 26.4 2.1 15 15.2 SSE 20 37 11 20 1016.9 1013.9 0.0
14/11:30am 31.1 25.5 3.2 17 14.5 ESE 22 35 12 19 1017.1 - 0.0
14/11:00am 31.0 25.6 4.7 19 14.0 SE 22 37 12 20 1017.4 - 0.0
14/10:30am 30.8 25.2 5.3 20 13.7 SSE 24 33 13 18 1017.8 - 0.0
14/10:00am 30.0 24.7 6.6 23 12.8 ESE 24 41 13 22 1018.1 - 0.0
14/09:30am 28.3 22.8 7.5 27 11.4 ESE 26 39 14 21 1018.6 - 0.0
14/09:00am 27.3 21.9 8.2 30 10.5 ESE 26 43 14 23 1018.5 1015.6 0.0
14/08:30am 27.4 22.6 8.8 31 10.4 E 24 35 13 19 1018.5 - 0.0
14/08:00am 25.9 21.1 8.8 34 9.5 E 24 35 13 19 1018.5 - 0.0
14/07:30am 24.9 20.0 10.0 39 8.4 E 26 39 14 21 1018.6 - 0.0
14/07:00am 23.9 19.4 10.2 42 7.7 E 24 41 13 22 1018.4 - 0.0
14/06:30am 22.6 17.7 10.1 45 7.0 ESE 26 37 14 20 1018.2 - 0.0
14/06:00am 21.4 17.3 8.7 44 6.8 ESE 20 30 11 16 1017.9 1015.0 0.0
14/05:30am 20.0 15.6 6.7 42 6.9 ESE 19 26 10 14 1017.6 - 0.0
14/05:00am 18.8 15.0 5.6 42 6.6 ESE 15 20 8 11 1017.3 - 0.0
14/04:30am 18.9 15.3 5.0 40 6.9 SE 13 19 7 10 1016.9 - 0.0
14/04:00am 19.5 15.1 4.8 38 7.3 SE 17 24 9 13 1016.5 - 0.0
14/03:30am 19.6 15.9 4.5 37 7.4 SE 13 20 7 11 1016.3 - 0.0
14/03:00am 20.2 16.2 4.7 36 7.7 SE 15 19 8 10 1016.0 1013.1 0.0
14/02:30am 20.4 16.7 4.4 35 7.9 SE 13 17 7 9 1015.9 - 0.0
14/02:00am 21.0 16.5 4.1 33 8.4 SE 17 24 9 13 1015.7 - 0.0
14/01:30am 21.2 17.1 4.3 33 8.4 SSE 15 20 8 11 1015.6 - 0.0
14/01:00am 21.5 18.1 4.1 32 8.6 SSE 11 19 6 10 1015.6 - 0.0
14/12:30am 22.2 18.1 4.3 31 9.0 SSE 15 20 8 11 1015.6 - 0.0
14/12:00am 22.6 18.5 4.2 30 9.2 SE 15 26 8 14 1015.6 1012.7 0.0
 
Date/Time
WST
Temp
°C
App
Temp
°C
Dew
Point
°C
Rel
Hum
%
Delta-T
°C
Wind Press
QNH
hPa
Press
MSL
hPa
Rain since
9am
mm
Dir  Spd
km/h
Gust
km/h
Spd
kts
Gust
kts
13/11:30pm 23.3 18.5 4.8 30 9.4 SSE 19 24 10 13 1015.7 - 0.0
13/11:00pm 23.8 19.0 4.7 29 9.7 SSE 19 26 10 14 1015.7 - 0.0
13/10:30pm 24.0 19.2 4.9 29 9.8 SSE 19 24 10 13 1015.8 - 0.0
13/10:00pm 24.1 20.1 5.0 29 9.8 SSE 15 20 8 11 1015.8 - 0.0
13/09:30pm 24.8 20.5 5.1 28 10.2 SSE 17 24 9 13 1015.8 - 0.0
13/09:00pm 25.2 21.2 4.9 27 10.5 S 15 20 8 11 1015.7 1012.8 0.0
13/08:30pm 25.6 22.0 5.2 27 10.6 S 13 17 7 9 1015.5 - 0.0
13/08:00pm 26.0 22.9 5.6 27 10.7 S 11 15 6 8 1015.1 - 0.0
13/07:30pm 26.8 23.5 6.2 27 11.0 S 13 17 7 9 1014.7 - 0.0
13/07:00pm 27.5 24.3 6.8 27 11.2 S 13 17 7 9 1014.2 - 0.0
13/06:30pm 28.3 24.8 7.0 26 11.6 S 15 20 8 11 1013.7 - 0.0
13/06:00pm 29.0 24.8 7.6 26 11.8 S 19 24 10 13 1013.2 1010.2 0.0
13/05:30pm 29.9 25.6 7.7 25 12.3 SSE 20 30 11 16 1012.8 - 0.0
13/05:00pm 30.7 27.0 7.8 24 12.8 S 17 30 9 16 1012.6 - 0.0
13/04:30pm 30.8 26.6 7.3 23 13.0 S 19 32 10 17 1012.4 - 0.0
13/04:00pm 31.0 26.7 6.8 22 13.3 S 19 32 10 17 1012.3 - 0.0
13/03:30pm 30.9 26.9 6.7 22 13.3 S 17 26 9 14 1012.3 - 0.0
13/03:00pm 31.1 27.3 7.5 23 13.1 S 17 28 9 15 1012.4 1009.4 0.0
13/02:30pm 30.8 27.5 7.9 24 12.8 S 15 26 8 14 1012.6 - 0.0
13/02:00pm 31.3 27.7 8.3 24 13.0 S 17 32 9 17 1012.6 - 0.0
13/01:30pm 31.1 27.7 9.3 26 12.5 SE 17 30 9 16 1012.7 - 0.0
13/01:00pm 30.1 26.9 10.1 29 11.6 S 17 28 9 15 1013.1 - 0.0
13/12:30pm 29.7 27.5 10.8 31 11.0 SE 13 28 7 15 1013.4 - 0.0
13/12:00pm 28.7 25.0 9.4 30 11.0 SSW 19 32 10 17 1013.8 1010.9 0.0
13/11:30am 29.1 25.3 11.2 33 10.5 SSE 22 30 12 16 1014.2 - 0.0
13/11:00am 28.5 25.8 11.6 35 9.9 SSE 17 26 9 14 1014.8 - 0.0
13/10:30am 27.2 25.5 12.4 40 8.8 SE 13 24 7 13 1015.0 - 0.0
13/10:00am 25.7 23.4 12.9 45 7.6 SE 17 30 9 16 1015.4 - 0.0
13/09:30am 26.9 25.3 14.0 45 7.8 SSE 15 26 8 14 1015.5 - 0.0
13/09:00am 26.0 24.2 14.5 49 7.0 SE 17 26 9 14 1015.7 1012.8 0.0
13/08:30am 25.2 22.9 14.6 51 6.4 SE 20 30 11 16 1015.7 - 0.0
13/08:00am 23.9 22.0 15.1 58 5.4 SSE 19 28 10 15 1015.8 - 0.0
13/07:30am 22.1 19.4 14.7 63 4.5 SE 22 35 12 19 1015.8 - 0.0
13/07:00am 21.6 19.4 15.0 66 4.0 SSE 20 30 11 16 1015.8 - 0.0
13/06:30am 20.5 17.9 14.8 70 3.4 SSE 22 32 12 17 1015.6 - 0.0
13/06:00am 19.8 17.7 14.8 73 3.0 SSE 19 28 10 15 1015.4 1012.4 0.0
13/05:30am 18.6 17.3 14.7 78 2.3 SSE 15 20 8 11 1015.2 - 0.0
13/05:00am 17.5 17.3 14.8 84 1.6 S 9 13 5 7 1014.8 - 0.0
13/04:30am 16.9 17.0 14.4 85 1.5 S 7 11 4 6 1014.4 - 0.0
13/04:00am 17.2 17.2 14.3 83 1.7 SSE 7 9 4 5 1014.1 - 0.0
13/03:30am 17.6 17.2 14.1 80 2.0 S 9 11 5 6 1013.9 - 0.0
13/03:00am 18.2 17.9 14.3 78 2.3 S 9 13 5 7 1013.9 1011.0 0.0
13/02:30am 18.5 18.1 14.2 76 2.5 S 9 13 5 7 1013.9 - 0.0
13/02:00am 19.0 18.6 14.1 73 2.9 S 9 15 5 8 1013.7 - 0.0
13/01:30am 19.6 18.0 14.0 70 3.3 S 15 22 8 12 1013.6 - 0.0
13/01:00am 20.1 18.6 14.2 69 3.5 S 15 22 8 12 1013.7 - 0.0
13/12:30am 20.7 18.9 14.4 67 3.7 S 17 26 9 14 1013.9 - 0.0
13/12:00am 21.0 19.3 14.6 67 3.8 S 17 26 9 14 1014.0 1011.1 0.0
 
Date/Time
WST
Temp
°C
App
Temp
°C
Dew
Point
°C
Rel
Hum
%
Delta-T
°C
Wind Press
QNH
hPa
Press
MSL
hPa
Rain since
9am
mm
Dir  Spd
km/h
Gust
km/h
Spd
kts
Gust
kts
12/11:30pm 21.6 19.5 14.7 65 4.1 S 19 26 10 14 1014.0 - 0.0
12/11:00pm 21.8 20.4 14.4 63 4.4 SSE 15 20 8 11 1014.1 - 0.0
12/10:30pm 22.4 20.2 14.5 61 4.7 SSE 19 24 10 13 1014.0 - 0.0
12/10:00pm 22.7 20.8 14.3 59 5.0 S 17 22 9 12 1013.8 - 0.0
12/09:30pm 23.2 20.8 13.9 56 5.5 S 19 28 10 15 1013.5 - 0.0
12/09:00pm 23.5 21.2 14.2 56 5.6 S 19 26 10 14 1013.3 1010.3 0.0
12/08:30pm 23.9 21.6 14.0 54 5.9 S 19 26 10 14 1012.9 - 0.0
12/08:00pm 24.4 21.3 14.5 54 6.0 S 24 39 13 21 1012.5 - 0.0
12/07:30pm 25.2 22.0 14.3 50 6.6 S 24 37 13 20 1011.9 - 0.0
12/07:00pm 26.0 23.6 14.5 49 7.0 S 20 32 11 17 1011.4 - 0.0
12/06:30pm 26.5 22.8 14.9 49 7.1 S 28 39 15 21 1010.7 - 0.0
12/06:00pm 27.5 22.8 14.8 45 7.8 SSW 33 44 18 24 1009.8 1006.9 0.0
12/05:30pm 29.3 24.4 14.3 40 9.2 SSW 33 44 18 24 1009.1 - 0.0
12/05:00pm 30.8 25.4 14.0 36 10.3 SSW 35 48 19 26 1008.3 - 0.0
12/04:30pm 32.9 29.7 11.4 27 12.8 SSW 19 32 10 17 1007.7 - 0.0
12/04:00pm 33.6 29.7 10.9 25 13.5 WSW 22 33 12 18 1007.2 - 0.0
12/03:30pm 34.3 28.2 8.1 20 15.0 WSW 30 43 16 23 1007.0 - 0.0
12/03:00pm 34.1 29.1 9.4 22 14.4 W 26 48 14 26 1006.9 1003.9 0.0
12/02:30pm 34.6 29.8 10.4 23 14.3 W 26 44 14 24 1006.8 - 0.0
12/01:30pm 34.3 30.6 12.6 27 13.3 WSW 24 37 13 20 1007.3 - 0.0
12/01:00pm 34.0 30.6 12.4 27 13.1 WNW 22 33 12 18 1007.7 - 0.0
12/12:30pm 34.3 29.6 12.0 25 13.5 WNW 28 41 15 22 1008.0 - 0.0
12/12:00pm 34.5 31.4 12.2 26 13.6 WNW 20 28 11 15 1008.2 1005.2 0.0
12/11:30am 33.4 30.3 13.5 30 12.3 NNW 22 39 12 21 1008.7 - 0.0
12/11:00am 33.1 29.9 14.2 32 11.8 WNW 24 33 13 18 1009.0 - 0.0
12/10:30am 32.3 28.8 14.4 33 11.1 NNW 26 37 14 20 1009.3 - 0.0
12/10:00am 31.6 27.0 13.4 33 11.1 NNW 30 44 16 24 1009.5 - 0.0
12/09:30am 31.2 27.0 13.5 34 10.8 N 28 39 15 21 1009.8 - 0.0
12/09:00am 30.0 26.2 12.4 34 10.6 N 24 32 13 17 1010.1 1007.1 2.0
12/08:30am 29.0 25.7 12.8 36 9.7 N 22 33 12 18 1010.4 - 2.0
12/08:00am 27.8 24.6 11.8 37 9.4 NNE 20 30 11 16 1009.8 - 2.0
12/07:30am 26.1 24.5 13.9 47 7.4 NNE 15 22 8 12 1010.2 - 2.0
12/07:00am 23.9 22.0 15.1 58 5.4 NNE 19 26 10 14 1009.8 - 2.0
12/06:30am 23.0 21.2 16.1 65 4.3 NE 20 32 11 17 1009.6 - 2.0
12/06:00am 21.4 19.8 16.4 73 3.1 NE 20 32 11 17 1009.8 1006.9 2.0
12/05:30am 20.9 18.4 16.1 74 2.9 NE 24 37 13 20 1009.7 - 2.0
12/05:00am 20.7 19.5 16.1 75 2.8 NE 17 24 9 13 1009.5 - 2.0
12/04:30am 20.8 19.9 15.8 73 3.0 ENE 15 20 8 11 1009.2 - 2.0
12/04:00am 20.4 19.4 15.6 74 2.9 NE 15 20 8 11 1009.0 - 2.0
12/03:30am 19.3 19.3 17.1 87 1.4 ENE 13 17 7 9 1009.3 - 2.0
12/03:00am 18.9 18.8 17.9 94 0.6 ENE 15 20 8 11 1010.2 1007.2 2.0
12/02:30am 19.5 20.7 17.3 87 1.4 NE 7 11 4 6 1011.3 - 1.4
12/02:00am 18.8 19.0 17.6 93 0.7 E 13 17 7 9 1010.7 - 1.4
12/01:30am 18.6 19.1 17.4 93 0.7 SSE 11 17 6 9 1010.7 - 1.4
12/01:00am 19.6 18.9 16.3 81 2.0 SW 15 22 8 12 1012.0 - 1.2
12/12:30am 20.3 20.7 15.3 73 3.0 SSW 7 28 4 15 1011.9 - 1.0
12/12:00am 20.3 16.7 15.3 73 3.0 SSW 28 39 15 21 1011.6 1008.6 1.0
 
Date/Time
WST
Temp
°C
App
Temp
°C
Dew
Point
°C
Rel
Hum
%
Delta-T
°C
Wind Press
QNH
hPa
Press
MSL
hPa
Rain since
9am
mm
Dir  Spd
km/h
Gust
km/h
Spd
kts
Gust
kts
11/11:30pm 20.8 16.0 14.5 67 3.8 SW 33 46 18 25 1010.5 - 1.0
11/11:00pm 20.5 18.2 14.2 67 3.7 SSW 19 26 10 14 1012.1 - 0.8
11/10:30pm 21.8 17.9 13.4 59 4.9 SW 26 37 14 20 1011.4 - 0.8
11/10:00pm 23.3 15.2 12.0 49 6.5 W 46 59 25 32 1012.9 - 0.4
11/09:30pm 28.6 24.2 4.8 22 12.5 ENE 17 26 9 14 1008.0 - 0.0
11/09:00pm 28.5 23.8 3.4 20 12.9 ESE 17 24 9 13 1008.0 1005.0 0.0
11/08:30pm 28.5 25.7 3.4 20 12.9 N 7 13 4 7 1010.1 - 0.0
11/08:00pm 28.9 24.4 2.2 18 13.4 ESE 15 24 8 13 1009.4 - 0.0
11/07:30pm 29.2 23.2 3.2 19 13.3 ESE 24 33 13 18 1009.0 - 0.0

Other Formats:

Comma delimited format used in spreadsheet applications
http://www.bom.gov.au/fwo/IDW60801/IDW60801.94457.axf

JavaScript Object Notation format (JSON) in row-major order
http://www.bom.gov.au/fwo/IDW60801/IDW60801.94457.json